SHFE weather

Hospital San Camilo Heliport
San Felipe, Valparaíso Region, Chile

Public forecast

Using degrees Celsius for public forecast. Weather courtesy of forecast.io.

Closest aviation weather report (METAR) to Hospital San Camilo Heliport

Report is more than 6 hours old.

Closest report is El Algarrobo Airport, 21.9 nm (40.6 km) NW. Retrieved 2013/01/18 22:00 UTC (8 years ago):

SCDL 182200Z 18013KT 150V210 CAVOK 29/14 Q1011 NOSIG

Closest aviation forecast (TAF) to Hospital San Camilo Heliport

Closest forecast is Comodoro Arturo Merino Benítez International Airport, 38.9 nm (72.0 km) S. Retrieved 2020/08/08 06:00 UTC (2 hours ago):

TAF SCEL 080434Z 0806/0906 16004KT 8000 NSC TX22/0818Z TN05/0810Z TEMPO 0808/0812 4000 BR BECMG 0815/0817 18008KT CAVOK BECMG 0818/0820 20010KT BECMG 0902/0904 VRB02KT